createdAt,value
2017-02-12T00:00:59.596Z,15.85
2017-02-12T00:02:09.506Z,15.83
2017-02-12T00:03:20.184Z,15.76
2017-02-12T00:04:30.464Z,15.78
2017-02-12T00:05:40.611Z,15.78
2017-02-12T00:06:49.729Z,15.84
2017-02-12T00:07:59.230Z,15.76
2017-02-12T00:09:09.123Z,15.54
2017-02-12T00:10:19.013Z,15.75
2017-02-12T00:11:29.607Z,15.75
2017-02-12T00:12:39.496Z,15.84
2017-02-12T00:13:48.615Z,15.73
2017-02-12T00:14:58.504Z,15.84
2017-02-12T00:16:08.799Z,15.78
2017-02-12T00:17:19.388Z,15.73
2017-02-12T00:18:29.682Z,15.88
2017-02-12T00:19:39.968Z,15.75
2017-02-12T00:20:49.858Z,15.83
2017-02-12T00:21:58.967Z,15.94
2017-02-12T00:23:09.496Z,15.81
2017-02-12T00:24:19.381Z,15.83
2017-02-12T00:25:29.671Z,15.78
2017-02-12T00:26:40.367Z,15.84
2017-02-12T00:27:49.876Z,15.85
2017-02-12T00:29:00.617Z,15.72
2017-02-12T00:30:10.909Z,15.67
2017-02-12T00:31:21.604Z,15.76
2017-02-12T00:32:31.880Z,15.85
2017-02-12T00:33:41.382Z,15.76
2017-02-12T00:34:51.196Z,15.69
2017-02-12T00:36:01.986Z,15.76
2017-02-12T00:37:12.280Z,15.7
2017-02-12T00:38:21.781Z,15.73
2017-02-12T00:39:32.072Z,15.76
2017-02-12T00:40:42.610Z,15.7
2017-02-12T00:41:52.903Z,15.76
2017-02-12T00:43:02.794Z,15.78
2017-02-12T00:44:13.477Z,15.78
2017-02-12T00:45:23.776Z,15.84
2017-02-12T00:46:33.965Z,15.88
2017-02-12T00:47:43.852Z,15.69
2017-02-12T00:48:53.754Z,15.75
2017-02-12T00:50:04.038Z,15.75
2017-02-12T00:51:13.929Z,15.66
2017-02-12T00:52:24.082Z,15.72
2017-02-12T00:53:33.972Z,15.75
2017-02-12T00:54:44.662Z,15.63
2017-02-12T00:55:54.546Z,15.76
2017-02-12T00:57:04.842Z,15.75
2017-02-12T00:58:15.030Z,15.85
2017-02-12T00:59:25.317Z,15.85
2017-02-12T01:00:35.592Z,15.87
2017-02-12T01:01:46.266Z,15.88
2017-02-12T01:02:56.951Z,15.9
2017-02-12T01:04:07.478Z,15.9
2017-02-12T01:05:17.365Z,15.8
2017-02-12T01:06:27.249Z,15.81
2017-02-12T01:07:37.938Z,15.76
2017-02-12T01:08:48.610Z,15.76
2017-02-12T01:09:58.357Z,15.69
2017-02-12T01:11:08.642Z,15.84
2017-02-12T01:12:19.318Z,15.87
2017-02-12T01:13:29.223Z,15.78
2017-02-12T01:14:39.509Z,15.88
2017-02-12T01:15:49.261Z,15.63
2017-02-12T01:16:59.548Z,15.69
2017-02-12T01:18:09.831Z,15.54
2017-02-12T01:19:20.514Z,15.59
2017-02-12T01:20:30.411Z,15.62
2017-02-12T01:21:40.980Z,15.6
2017-02-12T01:22:51.669Z,15.51
2017-02-12T01:24:01.586Z,15.62
2017-02-12T01:25:11.874Z,15.6
2017-02-12T01:26:22.551Z,15.57
2017-02-12T01:27:33.527Z,15.65
2017-02-12T01:28:43.813Z,15.62
2017-02-12T01:29:54.496Z,15.73
2017-02-12T01:31:04.783Z,15.65
2017-02-12T01:32:15.461Z,15.63
2017-02-12T01:33:26.386Z,15.59
2017-02-12T01:34:37.076Z,15.65
2017-02-12T01:35:46.970Z,15.6
2017-02-12T01:36:57.263Z,15.59
2017-02-12T01:38:07.168Z,15.75
2017-02-12T01:39:17.704Z,15.76
2017-02-12T01:40:27.988Z,15.8
2017-02-12T01:41:37.889Z,15.78
2017-02-12T01:42:48.561Z,15.76
2017-02-12T01:43:58.844Z,15.75
2017-02-12T01:45:09.772Z,15.75
2017-02-12T01:46:19.273Z,15.78
2017-02-12T01:47:29.557Z,15.84
2017-02-12T01:48:39.845Z,15.87
2017-02-12T01:49:50.137Z,16
2017-02-12T01:51:01.070Z,15.78
2017-02-12T01:52:11.757Z,15.72
2017-02-12T01:53:22.436Z,15.7
2017-02-12T01:54:32.351Z,15.63
2017-02-12T01:55:42.690Z,15.76
2017-02-12T01:56:53.618Z,15.76
2017-02-12T01:58:03.906Z,15.8
2017-02-12T01:59:14.814Z,15.6
2017-02-12T02:00:25.509Z,15.81
2017-02-12T02:01:36.190Z,15.76
2017-02-12T02:02:46.728Z,15.81
2017-02-12T02:03:57.018Z,15.76
2017-02-12T02:05:07.307Z,15.63
2017-02-12T02:06:17.590Z,15.73
2017-02-12T02:07:27.486Z,15.62
2017-02-12T02:08:38.018Z,15.75
2017-02-12T02:09:48.299Z,15.7
2017-02-12T02:10:57.404Z,15.63
2017-02-12T02:12:07.683Z,15.65
2017-02-12T02:13:17.574Z,15.62
2017-02-12T02:14:28.114Z,15.75
2017-02-12T02:15:37.999Z,15.84
2017-02-12T02:16:48.684Z,15.84
2017-02-12T02:17:58.634Z,15.76
2017-02-12T02:19:09.325Z,15.75
2017-02-12T02:20:20.245Z,15.76
2017-02-12T02:21:30.920Z,15.67
2017-02-12T02:22:41.605Z,15.63
2017-02-12T02:23:51.888Z,15.72
2017-02-12T02:25:02.173Z,15.75
2017-02-12T02:26:12.760Z,15.7
2017-02-12T02:27:23.455Z,15.85
2017-02-12T02:28:33.738Z,15.78
2017-02-12T02:29:43.625Z,15.76
2017-02-12T02:30:53.523Z,15.85
2017-02-12T02:32:04.072Z,15.94
2017-02-12T02:33:14.362Z,15.85
2017-02-12T02:34:24.651Z,15.94
2017-02-12T02:35:34.549Z,15.92
2017-02-12T02:36:45.228Z,16.06
2017-02-12T02:37:55.763Z,15.96
2017-02-12T02:39:05.267Z,15.83
2017-02-12T02:40:15.181Z,15.88
2017-02-12T02:41:25.465Z,15.85
2017-02-12T02:42:36.144Z,15.85
2017-02-12T02:43:46.287Z,15.94
2017-02-12T02:44:56.563Z,15.96
2017-02-12T02:46:07.242Z,15.7
2017-02-12T02:47:17.922Z,15.57
2017-02-12T02:48:28.219Z,15.76
2017-02-12T02:49:39.169Z,15.75
2017-02-12T02:50:49.850Z,15.7
2017-02-12T02:52:00.522Z,15.85
2017-02-12T02:53:11.198Z,15.78
2017-02-12T02:54:21.885Z,15.81
2017-02-12T02:55:32.425Z,15.75
2017-02-12T02:56:43.148Z,15.75
2017-02-12T02:57:53.827Z,15.78
2017-02-12T02:59:04.142Z,15.65
2017-02-12T03:00:14.824Z,15.75
2017-02-12T03:01:24.973Z,15.76
2017-02-12T03:02:34.873Z,15.76
2017-02-12T03:03:44.761Z,15.75
2017-02-12T03:04:55.047Z,15.78
2017-02-12T03:06:05.332Z,15.84
2017-02-12T03:07:15.515Z,15.9
2017-02-12T03:08:26.193Z,15.75
2017-02-12T03:09:36.477Z,15.85
2017-02-12T03:10:46.763Z,15.84
2017-02-12T03:11:57.436Z,15.99
2017-02-12T03:13:08.459Z,15.85
2017-02-12T03:14:17.960Z,15.85
2017-02-12T03:15:28.249Z,15.84
2017-02-12T03:16:38.931Z,15.92
2017-02-12T03:17:49.223Z,15.94
2017-02-12T03:18:59.360Z,15.83
2017-02-12T03:20:10.041Z,15.9
2017-02-12T03:21:20.323Z,15.94
2017-02-12T03:22:31.004Z,15.85
2017-02-12T03:23:40.897Z,15.76
2017-02-12T03:24:51.828Z,15.83
2017-02-12T03:26:01.720Z,15.83
2017-02-12T03:27:12.003Z,15.8
2017-02-12T03:28:21.902Z,15.76
2017-02-12T03:29:32.590Z,15.76
2017-02-12T03:30:43.124Z,15.6
2017-02-12T03:31:53.805Z,15.69
2017-02-12T03:33:04.097Z,15.65
2017-02-12T03:34:14.386Z,15.76
2017-02-12T03:35:24.281Z,15.8
2017-02-12T03:36:34.815Z,15.73
2017-02-12T03:37:44.709Z,15.85
2017-02-12T03:38:54.990Z,15.75
2017-02-12T03:40:05.274Z,15.81
2017-02-12T03:41:15.949Z,15.8
2017-02-12T03:42:26.924Z,15.76
2017-02-12T03:43:36.818Z,15.85
2017-02-12T03:44:47.101Z,15.73
2017-02-12T03:45:57.786Z,15.84
2017-02-12T03:47:08.469Z,15.8
2017-02-12T03:48:19.008Z,15.75
2017-02-12T03:49:29.296Z,15.83
2017-02-12T03:50:39.587Z,15.8
2017-02-12T03:51:50.289Z,15.6
2017-02-12T03:53:00.981Z,15.69
2017-02-12T03:54:10.729Z,15.78
2017-02-12T03:55:21.010Z,15.91
2017-02-12T03:56:31.299Z,15.84
2017-02-12T03:57:41.191Z,15.85
2017-02-12T03:58:51.477Z,15.87
2017-02-12T04:00:02.410Z,15.92
2017-02-12T04:01:13.090Z,15.88
2017-02-12T04:02:23.768Z,15.87
2017-02-12T04:03:34.450Z,16.06
2017-02-12T04:04:44.745Z,16
2017-02-12T04:05:55.674Z,16.02
2017-02-12T04:07:06.351Z,16
2017-02-12T04:08:16.644Z,15.98
2017-02-12T04:09:27.312Z,15.87
2017-02-12T04:10:37.597Z,15.83
2017-02-12T04:11:48.617Z,15.94
2017-02-12T04:12:58.907Z,15.81
2017-02-12T04:14:08.793Z,15.7
2017-02-12T04:15:19.479Z,15.76
2017-02-12T04:16:30.157Z,15.65
2017-02-12T04:17:40.689Z,15.55
2017-02-12T04:18:51.391Z,15.66
2017-02-12T04:20:01.680Z,15.7
2017-02-12T04:21:11.963Z,15.7
2017-02-12T04:22:21.856Z,15.76
2017-02-12T04:23:31.999Z,15.65
2017-02-12T04:24:42.289Z,15.7
2017-02-12T04:25:52.567Z,15.73
2017-02-12T04:27:03.291Z,15.76
2017-02-12T04:28:13.188Z,15.8
2017-02-12T04:29:23.336Z,15.8
2017-02-12T04:30:34.010Z,15.76
2017-02-12T04:31:44.292Z,15.81
2017-02-12T04:32:54.972Z,15.7
2017-02-12T04:34:05.258Z,15.78
2017-02-12T04:35:15.799Z,15.87
2017-02-12T04:36:26.483Z,15.87
2017-02-12T04:37:36.773Z,15.8
2017-02-12T04:38:48.050Z,15.78
2017-02-12T04:39:57.956Z,15.8
2017-02-12T04:41:08.488Z,15.91
2017-02-12T04:42:18.378Z,15.96
2017-02-12T04:43:29.051Z,15.98
2017-02-12T04:44:39.335Z,15.84
2017-02-12T04:45:50.008Z,15.84
2017-02-12T04:47:00.205Z,15.81
2017-02-12T04:48:10.487Z,15.76
2017-02-12T04:49:21.160Z,15.73
2017-02-12T04:50:31.843Z,15.73
2017-02-12T04:51:41.738Z,15.75
2017-02-12T04:52:52.712Z,15.75
2017-02-12T04:54:02.997Z,15.8
2017-02-12T04:55:13.281Z,15.75
2017-02-12T04:56:23.561Z,15.72
2017-02-12T04:57:34.238Z,15.67
2017-02-12T04:58:44.379Z,15.69
2017-02-12T04:59:54.269Z,15.78
2017-02-12T05:01:03.779Z,15.7
2017-02-12T05:02:13.286Z,15.65
2017-02-12T05:03:23.959Z,15.8
2017-02-12T05:04:33.716Z,15.65
2017-02-12T05:05:44.393Z,15.63
2017-02-12T05:06:55.075Z,15.73
2017-02-12T05:08:05.792Z,15.75
2017-02-12T05:09:15.691Z,15.75
2017-02-12T05:10:26.226Z,15.75
2017-02-12T05:11:36.907Z,15.8
2017-02-12T05:12:47.631Z,15.73
2017-02-12T05:13:58.306Z,15.76
2017-02-12T05:15:08.586Z,15.76
2017-02-12T05:16:19.567Z,15.65
2017-02-12T05:17:29.857Z,15.62
2017-02-12T05:18:40.139Z,15.73
2017-02-12T05:19:50.838Z,15.73
2017-02-12T05:21:01.526Z,15.76
2017-02-12T05:22:12.067Z,15.85
2017-02-12T05:23:22.743Z,15.75
2017-02-12T05:24:33.023Z,15.75
2017-02-12T05:25:43.312Z,15.7
2017-02-12T05:26:53.598Z,15.81
2017-02-12T05:28:03.749Z,15.76
2017-02-12T05:29:13.252Z,15.88
2017-02-12T05:30:23.929Z,15.81
2017-02-12T05:31:34.220Z,15.78
2017-02-12T05:32:44.903Z,15.75
2017-02-12T05:33:55.056Z,15.75
2017-02-12T05:35:05.336Z,15.65
2017-02-12T05:36:16.022Z,15.7
2017-02-12T05:37:26.306Z,15.8
2017-02-12T05:38:36.979Z,15.69
2017-02-12T05:39:47.899Z,15.69
2017-02-12T05:40:57.786Z,15.57
2017-02-12T05:42:08.065Z,15.7
2017-02-12T05:43:18.601Z,15.59
2017-02-12T05:44:28.886Z,15.52
2017-02-12T05:45:39.438Z,15.69
2017-02-12T05:46:50.117Z,15.78
2017-02-12T05:48:00.797Z,15.7
2017-02-12T05:49:11.477Z,15.76
2017-02-12T05:50:21.758Z,15.75
2017-02-12T05:51:32.296Z,15.72
2017-02-12T05:52:42.967Z,15.7
2017-02-12T05:53:53.643Z,15.76
2017-02-12T05:55:03.968Z,15.83
2017-02-12T05:56:14.264Z,15.73
2017-02-12T05:57:24.796Z,15.75
2017-02-12T05:58:34.690Z,15.7
2017-02-12T05:59:44.984Z,15.73
2017-02-12T06:00:55.671Z,15.78
2017-02-12T06:02:06.344Z,15.72
2017-02-12T06:03:17.279Z,15.81
2017-02-12T06:04:27.960Z,15.84
2017-02-12T06:05:38.639Z,15.91
2017-02-12T06:06:48.533Z,15.87
2017-02-12T06:07:59.207Z,15.98
2017-02-12T06:09:10.131Z,16.02
2017-02-12T06:10:20.023Z,15.78
2017-02-12T06:11:30.703Z,15.84
2017-02-12T06:12:41.396Z,15.76
2017-02-12T06:13:52.068Z,15.75
2017-02-12T06:15:02.658Z,15.84
2017-02-12T06:16:12.947Z,15.83
2017-02-12T06:17:23.275Z,15.9
2017-02-12T06:18:33.951Z,15.92
2017-02-12T06:19:43.842Z,15.75
2017-02-12T06:20:54.769Z,15.7
2017-02-12T06:22:05.049Z,15.8
2017-02-12T06:23:14.942Z,15.75
2017-02-12T06:24:25.223Z,15.94
2017-02-12T06:25:35.114Z,15.84
2017-02-12T06:26:44.907Z,15.69
2017-02-12T06:27:55.580Z,15.73
2017-02-12T06:29:06.507Z,15.75
2017-02-12T06:30:16.398Z,15.73
2017-02-12T06:31:27.076Z,15.76
2017-02-12T06:32:38.055Z,15.75
2017-02-12T06:33:47.166Z,15.72
2017-02-12T06:34:57.841Z,15.66
2017-02-12T06:36:08.123Z,15.73
2017-02-12T06:37:18.408Z,15.76
2017-02-12T06:38:29.339Z,15.72
2017-02-12T06:39:40.015Z,15.81
2017-02-12T06:40:50.703Z,15.73
2017-02-12T06:42:01.383Z,15.7
2017-02-12T06:43:10.894Z,15.75
2017-02-12T06:44:21.475Z,15.76
2017-02-12T06:45:31.781Z,15.73
2017-02-12T06:46:41.285Z,15.73
2017-02-12T06:47:51.570Z,15.76
2017-02-12T06:49:01.857Z,15.73
2017-02-12T06:50:12.834Z,15.81
2017-02-12T06:51:23.518Z,15.88
2017-02-12T06:52:33.816Z,15.81
2017-02-12T06:53:44.301Z,15.78
2017-02-12T06:54:54.588Z,15.83
2017-02-12T06:56:05.524Z,15.9
2017-02-12T06:57:16.202Z,15.63
2017-02-12T06:58:26.487Z,15.78
2017-02-12T06:59:37.165Z,15.73
2017-02-12T07:00:47.458Z,15.55
2017-02-12T07:01:58.017Z,15.73
2017-02-12T07:03:08.304Z,15.59
2017-02-12T07:04:19.330Z,15.73
2017-02-12T07:05:30.006Z,15.75
2017-02-12T07:06:40.740Z,15.62
2017-02-12T07:07:51.674Z,15.62
2017-02-12T07:09:01.962Z,15.72
2017-02-12T07:10:12.250Z,15.73
2017-02-12T07:11:22.925Z,15.69
2017-02-12T07:12:33.218Z,15.7
2017-02-12T07:13:44.149Z,15.57
2017-02-12T07:14:54.841Z,15.63
2017-02-12T07:16:05.511Z,15.81
2017-02-12T07:17:15.408Z,15.78
2017-02-12T07:18:26.094Z,15.73
2017-02-12T07:19:36.631Z,15.8
2017-02-12T07:20:46.920Z,15.76
2017-02-12T07:21:57.218Z,15.81
2017-02-12T07:23:07.501Z,15.65
2017-02-12T07:24:17.394Z,15.75
2017-02-12T07:25:27.540Z,15.76
2017-02-12T07:26:37.833Z,15.76
2017-02-12T07:27:48.514Z,15.78
2017-02-12T07:28:58.806Z,15.73
2017-02-12T07:30:09.090Z,15.76
2017-02-12T07:31:20.071Z,15.76
2017-02-12T07:32:30.743Z,15.76
2017-02-12T07:33:41.030Z,15.81
2017-02-12T07:34:51.708Z,15.8
2017-02-12T07:36:01.988Z,15.85
2017-02-12T07:37:12.148Z,15.87
2017-02-12T07:38:22.448Z,15.75
2017-02-12T07:39:33.127Z,15.69
2017-02-12T07:40:43.419Z,15.83
2017-02-12T07:41:53.313Z,15.91
2017-02-12T07:43:04.297Z,15.75
2017-02-12T07:44:14.978Z,15.84
2017-02-12T07:45:25.671Z,15.88
2017-02-12T07:46:36.350Z,15.8
2017-02-12T07:47:47.030Z,15.78
2017-02-12T07:48:57.565Z,15.75
2017-02-12T07:50:08.244Z,15.76
2017-02-12T07:51:18.920Z,15.78
2017-02-12T07:52:29.597Z,15.69
2017-02-12T07:53:39.898Z,15.73
2017-02-12T07:54:50.495Z,15.76
2017-02-12T07:56:00.784Z,15.75
2017-02-12T07:57:10.682Z,15.62
2017-02-12T07:58:20.976Z,15.76
2017-02-12T07:59:30.885Z,15.8
2017-02-12T08:00:41.882Z,15.78
2017-02-12T08:01:52.174Z,15.85
2017-02-12T08:03:02.098Z,15.85
2017-02-12T08:04:12.400Z,15.76
2017-02-12T08:05:23.081Z,15.78
2017-02-12T08:06:33.221Z,15.84
2017-02-12T08:07:43.518Z,15.78
2017-02-12T08:08:54.212Z,15.76
2017-02-12T08:10:04.110Z,15.72
2017-02-12T08:11:14.839Z,15.72
2017-02-12T08:12:25.422Z,15.7
2017-02-12T08:13:35.319Z,15.76
2017-02-12T08:14:45.996Z,15.8
2017-02-12T08:15:55.893Z,15.81
2017-02-12T08:17:06.187Z,15.87
2017-02-12T08:18:16.725Z,15.75
2017-02-12T08:19:27.006Z,15.72
2017-02-12T08:20:37.689Z,15.73
2017-02-12T08:21:48.026Z,15.81
2017-02-12T08:22:58.326Z,15.78
2017-02-12T08:24:09.333Z,15.76
2017-02-12T08:25:20.026Z,15.84
2017-02-12T08:26:30.318Z,15.85
2017-02-12T08:27:40.997Z,15.8
2017-02-12T08:28:51.694Z,15.8
2017-02-12T08:30:02.239Z,15.88
2017-02-12T08:31:12.525Z,15.88
2017-02-12T08:32:23.213Z,15.85
2017-02-12T08:33:33.117Z,15.76
2017-02-12T08:34:43.414Z,15.75
2017-02-12T08:35:54.406Z,15.76
2017-02-12T08:37:04.691Z,15.83
2017-02-12T08:38:15.409Z,15.72
2017-02-12T08:39:25.708Z,15.75
2017-02-12T08:40:35.606Z,15.88
2017-02-12T08:41:45.358Z,15.8
2017-02-12T08:42:56.046Z,15.75
2017-02-12T08:44:06.722Z,15.76
2017-02-12T08:45:17.024Z,15.76
2017-02-12T08:46:27.315Z,15.92
2017-02-12T08:47:37.860Z,15.76
2017-02-12T08:48:47.756Z,15.84
2017-02-12T08:49:58.036Z,15.85
2017-02-12T08:51:08.731Z,15.75
2017-02-12T08:52:18.650Z,15.76
2017-02-12T08:53:29.583Z,15.81
2017-02-12T08:54:40.277Z,15.88
2017-02-12T08:55:50.955Z,15.94
2017-02-12T08:57:00.854Z,15.99
2017-02-12T08:58:11.152Z,16.02
2017-02-12T08:59:21.786Z,16.03
2017-02-12T09:00:32.492Z,15.96
2017-02-12T09:01:42.775Z,16.03
2017-02-12T09:02:53.472Z,16
2017-02-12T09:04:04.153Z,15.88
2017-02-12T09:05:14.300Z,15.9
2017-02-12T09:06:24.588Z,15.81
2017-02-12T09:07:35.273Z,16.06
2017-02-12T09:08:45.561Z,16.03
2017-02-12T09:09:56.238Z,16.02
2017-02-12T09:11:07.176Z,16.1
2017-02-12T09:12:17.459Z,16.02
2017-02-12T09:13:28.143Z,15.98
2017-02-12T09:14:38.423Z,15.84
2017-02-12T09:15:49.104Z,15.85
2017-02-12T09:16:59.657Z,15.87
2017-02-12T09:18:09.560Z,15.87
2017-02-12T09:19:19.071Z,15.84
2017-02-12T09:20:29.359Z,15.81
2017-02-12T09:21:40.048Z,15.87
2017-02-12T09:22:50.194Z,15.9
2017-02-12T09:24:00.879Z,15.76
2017-02-12T09:25:11.169Z,15.78
2017-02-12T09:26:21.065Z,15.75
2017-02-12T09:27:31.743Z,15.85
2017-02-12T09:28:42.341Z,15.75
2017-02-12T09:29:52.629Z,15.8
2017-02-12T09:31:02.919Z,15.72
2017-02-12T09:32:13.204Z,15.84
2017-02-12T09:33:23.488Z,15.8
2017-02-12T09:34:33.630Z,15.8
2017-02-12T09:35:44.322Z,15.75
2017-02-12T09:36:55.011Z,15.81
2017-02-12T09:38:05.688Z,15.9
2017-02-12T09:39:15.971Z,15.75
2017-02-12T09:40:26.511Z,15.94
2017-02-12T09:41:36.820Z,16.06
2017-02-12T09:42:47.502Z,16.13
2017-02-12T09:43:58.187Z,16.06
2017-02-12T09:45:08.570Z,16.06
2017-02-12T09:46:19.492Z,15.98
2017-02-12T09:47:29.780Z,15.92
2017-02-12T09:48:40.062Z,15.94
2017-02-12T09:49:50.743Z,15.84
2017-02-12T09:51:01.035Z,15.84
2017-02-12T09:52:11.184Z,16.03
2017-02-12T09:53:21.497Z,16
2017-02-12T09:54:31.404Z,16
2017-02-12T09:55:41.339Z,15.94
2017-02-12T09:56:51.662Z,15.83
2017-02-12T09:58:02.627Z,15.91
2017-02-12T09:59:13.356Z,15.96
2017-02-12T10:00:23.677Z,16.02
2017-02-12T10:01:34.413Z,16.03
2017-02-12T10:02:45.150Z,16.03
2017-02-12T10:03:54.947Z,15.84
2017-02-12T10:05:05.268Z,15.76
2017-02-12T10:06:15.993Z,15.88
2017-02-12T10:07:25.946Z,15.81
2017-02-12T10:08:35.886Z,16.02
2017-02-12T10:09:46.928Z,15.96
2017-02-12T10:10:56.864Z,15.98
2017-02-12T10:12:07.581Z,15.94
2017-02-12T10:13:18.306Z,15.98
2017-02-12T10:14:28.243Z,15.91
2017-02-12T10:15:38.459Z,15.96
2017-02-12T10:16:49.177Z,15.87
2017-02-12T10:17:59.482Z,15.87
2017-02-12T10:19:09.392Z,15.96
2017-02-12T10:20:19.707Z,15.84
2017-02-12T10:21:30.715Z,15.99
2017-02-12T10:22:41.434Z,15.99
2017-02-12T10:23:51.381Z,15.98
2017-02-12T10:25:01.912Z,15.99
2017-02-12T10:26:11.840Z,15.88
2017-02-12T10:27:22.452Z,15.91
2017-02-12T10:28:32.749Z,16.09
2017-02-12T10:29:42.671Z,16.16
2017-02-12T10:30:53.387Z,16.16
2017-02-12T10:32:03.697Z,16.26
2017-02-12T10:33:13.468Z,16.21
2017-02-12T10:34:23.784Z,16.12
2017-02-12T10:35:34.091Z,16.17
2017-02-12T10:36:43.212Z,16.02
2017-02-12T10:37:53.503Z,16.1
2017-02-12T10:39:03.663Z,16.06
2017-02-12T10:40:13.980Z,16.03
2017-02-12T10:41:24.689Z,15.98
2017-02-12T10:42:34.621Z,15.96
2017-02-12T10:43:44.161Z,15.96
2017-02-12T10:44:55.182Z,15.94
2017-02-12T10:46:05.524Z,15.85
2017-02-12T10:47:16.239Z,15.98
2017-02-12T10:48:26.565Z,16.02
2017-02-12T10:49:36.910Z,15.83
2017-02-12T10:50:47.475Z,15.98
2017-02-12T10:51:58.217Z,16.06
2017-02-12T10:53:08.540Z,15.91
2017-02-12T10:54:18.853Z,15.84
2017-02-12T10:55:29.183Z,15.76
2017-02-12T10:56:39.373Z,15.84
2017-02-12T10:57:49.726Z,15.87
2017-02-12T10:59:00.475Z,15.87
2017-02-12T11:00:10.798Z,15.99
2017-02-12T11:01:21.121Z,15.87
2017-02-12T11:02:31.687Z,15.94
2017-02-12T11:03:42.455Z,15.92
2017-02-12T11:04:53.181Z,16.03
2017-02-12T11:06:03.911Z,15.84
2017-02-12T11:07:14.241Z,15.94
2017-02-12T11:08:24.464Z,16
2017-02-12T11:09:33.980Z,16.03
2017-02-12T11:10:44.699Z,16.08
2017-02-12T11:11:55.029Z,16.12
2017-02-12T11:13:05.355Z,16.06
2017-02-12T11:14:16.572Z,16.09
2017-02-12T11:15:26.891Z,16.06
2017-02-12T11:16:37.216Z,16.16
2017-02-12T11:17:47.179Z,16.1
2017-02-12T11:18:57.931Z,15.99
2017-02-12T11:20:08.554Z,16.08
2017-02-12T11:21:19.285Z,16.13
2017-02-12T11:22:29.207Z,15.94
2017-02-12T11:23:39.538Z,16.09
2017-02-12T11:24:49.860Z,16.13
2017-02-12T11:26:00.006Z,16.03
2017-02-12T11:27:09.921Z,15.94
2017-02-12T11:28:20.627Z,15.88
2017-02-12T11:29:30.934Z,16.06
2017-02-12T11:30:41.652Z,16.08
2017-02-12T11:31:52.651Z,15.98
2017-02-12T11:33:01.764Z,15.99
2017-02-12T11:34:12.092Z,16.02
2017-02-12T11:35:22.391Z,16.02
2017-02-12T11:36:32.703Z,15.88
2017-02-12T11:37:42.897Z,16.03
2017-02-12T11:38:53.590Z,15.88
2017-02-12T11:40:03.523Z,15.99
2017-02-12T11:41:13.810Z,15.96
2017-02-12T11:42:24.114Z,15.98
2017-02-12T11:43:35.108Z,15.94
2017-02-12T11:44:45.028Z,15.99
2017-02-12T11:45:55.358Z,15.91
2017-02-12T11:47:05.290Z,16.05
2017-02-12T11:48:15.638Z,16.05
2017-02-12T11:49:26.668Z,15.88
2017-02-12T11:50:37.439Z,15.92
2017-02-12T11:51:46.224Z,16.03
2017-02-12T11:52:56.945Z,16
2017-02-12T11:54:06.853Z,16.1
2017-02-12T11:55:16.614Z,16.02
2017-02-12T11:56:26.534Z,16.16
2017-02-12T11:57:36.049Z,16
2017-02-12T11:58:46.365Z,16.09
2017-02-12T11:59:56.710Z,16.18
2017-02-12T12:01:07.713Z,16.18
2017-02-12T12:02:18.042Z,16.28
2017-02-12T12:03:27.568Z,16.16
2017-02-12T12:04:37.898Z,16.05
2017-02-12T12:05:48.599Z,16.03
2017-02-12T12:06:59.544Z,16.1
2017-02-12T12:08:10.242Z,16
2017-02-12T12:09:20.932Z,16.05
2017-02-12T12:10:31.266Z,16.12
2017-02-12T12:11:41.605Z,16.02
2017-02-12T12:12:52.192Z,16.12
2017-02-12T12:14:02.532Z,16
2017-02-12T12:15:13.263Z,16.08
2017-02-12T12:16:23.972Z,15.92
2017-02-12T12:17:33.909Z,16
2017-02-12T12:18:44.529Z,16.08
2017-02-12T12:19:55.466Z,16.03
2017-02-12T12:21:06.197Z,15.92
2017-02-12T12:22:16.934Z,16.02
2017-02-12T12:23:27.269Z,16.02
2017-02-12T12:24:37.826Z,15.92
2017-02-12T12:25:48.135Z,15.99
2017-02-12T12:26:57.672Z,16.02
2017-02-12T12:28:07.988Z,15.87
2017-02-12T12:29:18.303Z,16.05
2017-02-12T12:30:28.883Z,16.05
2017-02-12T12:31:39.218Z,16.08
2017-02-12T12:32:49.954Z,16.08
2017-02-12T12:34:00.289Z,16.24
2017-02-12T12:35:11.006Z,16.21
2017-02-12T12:36:21.997Z,16.12
2017-02-12T12:37:32.695Z,16
2017-02-12T12:38:43.398Z,15.98
2017-02-12T12:39:53.713Z,15.85
2017-02-12T12:41:04.029Z,16.1
2017-02-12T12:42:14.219Z,16.06
2017-02-12T12:43:24.939Z,16.06
2017-02-12T12:44:35.638Z,16.1
2017-02-12T12:45:45.960Z,15.99
2017-02-12T12:46:56.322Z,16.05
2017-02-12T12:48:06.906Z,16.12
2017-02-12T12:49:17.597Z,16.1
2017-02-12T12:50:27.503Z,16.12
2017-02-12T12:51:38.209Z,16.13
2017-02-12T12:52:48.572Z,16.08
2017-02-12T12:53:59.203Z,16.08
2017-02-12T12:55:09.528Z,16
2017-02-12T12:56:19.846Z,15.85
2017-02-12T12:57:30.560Z,16
2017-02-12T12:58:41.267Z,15.88
2017-02-12T12:59:51.835Z,15.83
2017-02-12T13:01:03.430Z,15.99
2017-02-12T13:02:13.757Z,15.87
2017-02-12T13:03:24.470Z,15.83
2017-02-12T13:04:34.800Z,16
2017-02-12T13:05:45.771Z,15.99
2017-02-12T13:06:55.704Z,15.81
2017-02-12T13:08:06.455Z,15.92
2017-02-12T13:09:17.171Z,15.88
2017-02-12T13:10:27.503Z,15.99
2017-02-12T13:11:38.498Z,16.02
2017-02-12T13:12:49.227Z,16.02
2017-02-12T13:13:58.753Z,15.98
2017-02-12T13:15:09.453Z,15.96
2017-02-12T13:16:19.786Z,16.03
2017-02-12T13:17:30.807Z,15.98
2017-02-12T13:18:40.741Z,15.99
2017-02-12T13:19:51.069Z,15.94
2017-02-12T13:21:01.399Z,16.02
2017-02-12T13:22:10.926Z,15.85
2017-02-12T13:23:21.556Z,15.99
2017-02-12T13:24:32.289Z,16
2017-02-12T13:25:42.630Z,16.02
2017-02-12T13:26:53.325Z,15.87
2017-02-12T13:28:03.267Z,16.02
2017-02-12T13:29:14.295Z,16.09
2017-02-12T13:30:24.623Z,16.05
2017-02-12T13:31:34.950Z,15.96
2017-02-12T13:32:45.292Z,15.98
2017-02-12T13:33:55.626Z,15.94
2017-02-12T13:35:06.206Z,15.91
2017-02-12T13:36:16.116Z,15.91
2017-02-12T13:37:26.437Z,15.92
2017-02-12T13:38:37.152Z,16
2017-02-12T13:39:47.871Z,15.83
2017-02-12T13:40:58.904Z,16.05
2017-02-12T13:42:08.838Z,15.88
2017-02-12T13:43:19.524Z,15.94
2017-02-12T13:44:28.640Z,15.98
2017-02-12T13:45:39.464Z,16.08
2017-02-12T13:46:50.430Z,16.03
2017-02-12T13:48:00.764Z,16.08
2017-02-12T13:49:10.710Z,16.02
2017-02-12T13:50:21.054Z,16.1
2017-02-12T13:51:31.782Z,16.06
2017-02-12T13:52:41.958Z,16.16
2017-02-12T13:53:51.877Z,16.06
2017-02-12T13:55:02.607Z,16.05
2017-02-12T13:56:12.957Z,15.99
2017-02-12T13:57:23.249Z,16.05
2017-02-12T13:58:33.827Z,16.06
2017-02-12T13:59:44.568Z,16.02
2017-02-12T14:00:55.294Z,16.21
2017-02-12T14:02:05.225Z,16.12
2017-02-12T14:03:15.951Z,16.22
2017-02-12T14:04:26.522Z,16.13
2017-02-12T14:05:36.843Z,16.13
2017-02-12T14:06:47.617Z,16.25
2017-02-12T14:07:58.388Z,16.22
2017-02-12T14:09:08.700Z,16.09
2017-02-12T14:10:19.321Z,16.18
2017-02-12T14:11:30.038Z,16.12
2017-02-12T14:12:40.774Z,16.25
2017-02-12T14:13:52.091Z,16.21
2017-02-12T14:15:02.598Z,16.28
2017-02-12T14:16:13.165Z,16.22
2017-02-12T14:17:23.887Z,16.26
2017-02-12T14:18:35.227Z,16.26
2017-02-12T14:19:45.161Z,16.18
2017-02-12T14:20:55.881Z,16.22
2017-02-12T14:22:06.520Z,16.24
2017-02-12T14:23:17.235Z,16.13
2017-02-12T14:24:27.547Z,16.22
2017-02-12T14:25:37.867Z,16.24
2017-02-12T14:26:48.174Z,16.17
2017-02-12T14:27:58.837Z,16.24
2017-02-12T14:29:08.759Z,16.22
2017-02-12T14:30:19.099Z,16.05
2017-02-12T14:31:29.423Z,15.98
2017-02-12T14:32:39.767Z,16.06
2017-02-12T14:33:50.350Z,16.16
2017-02-12T14:35:01.069Z,16.09
2017-02-12T14:36:11.419Z,16.13
2017-02-12T14:37:22.150Z,16.24
2017-02-12T14:38:32.468Z,16.09
2017-02-12T14:39:43.019Z,16.1
2017-02-12T14:40:53.357Z,16.05
2017-02-12T14:42:03.698Z,16
2017-02-12T14:43:14.421Z,16
2017-02-12T14:44:24.350Z,16.12
2017-02-12T14:45:34.968Z,16.22
2017-02-12T14:46:45.285Z,16.24
2017-02-12T14:47:55.609Z,16.22
2017-02-12T14:49:05.932Z,16.24
2017-02-12T14:50:15.458Z,16.05
2017-02-12T14:51:26.410Z,16.22
2017-02-12T14:52:37.125Z,16.12
2017-02-12T14:53:47.863Z,16.08
2017-02-12T14:54:58.618Z,16.12
2017-02-12T14:56:08.576Z,16.28
2017-02-12T14:57:19.167Z,16.24
2017-02-12T14:58:29.912Z,16.05
2017-02-12T14:59:40.637Z,16.1
2017-02-12T15:00:51.356Z,16.03
2017-02-12T15:02:01.671Z,16.05
2017-02-12T15:03:11.922Z,16
2017-02-12T15:04:22.629Z,16
2017-02-12T15:05:33.685Z,16.05
2017-02-12T15:06:44.398Z,16.02
2017-02-12T15:07:53.945Z,16.03
2017-02-12T15:09:04.531Z,16
2017-02-12T15:10:14.463Z,16.03
2017-02-12T15:11:24.810Z,16
2017-02-12T15:12:35.534Z,16.06